Time,TemperatureF,DewpointF,PressureIn,WindDirection,WindDirectionDegrees,WindSpeedMPH,WindSpeedGustMPH,Humidity,HourlyPrecipIn,Conditions,Clouds,dailyrainin,SolarRadiationWatts/m^2,SoftwareType,DateUTC
2013-07-10 00:00:00,84.0,64.0,-100.00,SSE,152,3.0,-999.0,52,0.00,,,0.00,0.000000,,2013-07-10 05:00:00,
2013-07-10 00:22:00,84.0,64.0,-100.00,SSE,152,3.0,-999.0,52,0.00,,,0.00,0.000000,,2013-07-10 05:22:00,
2013-07-10 00:32:00,84.0,64.0,-100.00,SSE,152,3.0,-999.0,52,0.00,,,0.00,0.000000,,2013-07-10 05:32:00,
2013-07-10 00:42:00,84.0,64.0,-100.00,SSE,152,3.0,-999.0,52,0.00,,,0.00,0.000000,,2013-07-10 05:42:00,
2013-07-10 00:53:00,84.0,64.0,-100.00,SSE,152,3.0,-999.0,52,0.00,,,0.00,0.000000,,2013-07-10 05:53:00,
2013-07-10 01:00:00,82.0,63.0,-100.00,SE,144,2.0,-999.0,52,0.00,,,0.00,0.000000,,2013-07-10 06:00:00,
2013-07-10 01:22:00,82.0,63.0,-100.00,SE,144,2.0,-999.0,52,0.00,,,0.00,0.000000,,2013-07-10 06:22:00,
2013-07-10 01:32:00,82.0,63.0,-100.00,SE,144,2.0,-999.0,52,0.00,,,0.00,0.000000,,2013-07-10 06:32:00,
2013-07-10 01:42:00,82.0,63.0,-100.00,SE,144,2.0,-999.0,52,0.00,,,0.00,0.000000,,2013-07-10 06:42:00,
2013-07-10 01:52:00,82.0,63.0,-100.00,SE,144,2.0,-999.0,52,0.00,,,0.00,0.000000,,2013-07-10 06:52:00,
2013-07-10 02:00:00,82.0,62.0,-100.00,SE,145,2.0,-999.0,50,0.00,,,0.00,0.000000,,2013-07-10 07:00:00,
2013-07-10 02:22:00,82.0,62.0,-100.00,SE,145,2.0,-999.0,50,0.00,,,0.00,0.000000,,2013-07-10 07:22:00,
2013-07-10 02:33:00,82.0,62.0,-100.00,SE,145,2.0,-999.0,50,0.00,,,0.00,0.000000,,2013-07-10 07:33:00,
2013-07-10 02:43:00,82.0,62.0,-100.00,SE,145,2.0,-999.0,50,0.00,,,0.00,0.000000,,2013-07-10 07:43:00,
2013-07-10 02:53:00,82.0,62.0,-100.00,SE,145,2.0,-999.0,50,0.00,,,0.00,0.000000,,2013-07-10 07:53:00,
2013-07-10 03:00:00,80.0,61.0,-100.00,SE,132,1.0,-999.0,52,0.00,,,0.00,0.000000,,2013-07-10 08:00:00,
2013-07-10 03:23:00,80.0,61.0,-100.00,SE,132,1.0,-999.0,52,0.00,,,0.00,0.000000,,2013-07-10 08:23:00,
2013-07-10 03:33:00,80.0,61.0,-100.00,SE,132,1.0,-999.0,52,0.00,,,0.00,0.000000,,2013-07-10 08:33:00,
2013-07-10 03:42:00,80.0,61.0,-100.00,SE,132,1.0,-999.0,52,0.00,,,0.00,0.000000,,2013-07-10 08:42:00,
2013-07-10 03:53:00,80.0,61.0,-100.00,SE,132,1.0,-999.0,52,0.00,,,0.00,0.000000,,2013-07-10 08:53:00,
2013-07-10 04:00:00,80.0,59.0,-100.00,SE,133,1.0,-999.0,48,0.00,,,0.00,0.000000,,2013-07-10 09:00:00,
2013-07-10 04:22:00,80.0,59.0,-100.00,SE,133,1.0,-999.0,48,0.00,,,0.00,0.000000,,2013-07-10 09:22:00,
2013-07-10 04:32:00,80.0,59.0,-100.00,SE,133,1.0,-999.0,48,0.00,,,0.00,0.000000,,2013-07-10 09:32:00,
2013-07-10 04:43:00,80.0,59.0,-100.00,SE,133,1.0,-999.0,48,0.00,,,0.00,0.000000,,2013-07-10 09:43:00,
2013-07-10 04:53:00,80.0,59.0,-100.00,SE,133,1.0,-999.0,48,0.00,,,0.00,0.000000,,2013-07-10 09:53:00,
2013-07-10 05:00:00,-999.0,-99.9,-100.00,SE,135,0.0,-999.0,-999,-99.99,,,-99.99,0.000000,,2013-07-10 10:00:00,
2013-07-10 05:23:00,79.0,60.0,-100.00,SE,135,0.0,-999.0,53,0.00,,,0.00,0.000000,,2013-07-10 10:23:00,
2013-07-10 05:32:00,79.0,60.0,-100.00,SE,135,0.0,-999.0,53,0.00,,,0.00,0.000000,,2013-07-10 10:32:00,
2013-07-10 05:51:00,-999.0,-99.9,-100.00,SE,135,0.0,-999.0,-999,-99.99,,,-99.99,0.000000,,2013-07-10 10:51:00,
2013-07-10 06:00:00,78.0,65.0,-100.00,North,11,1.0,-999.0,63,0.00,,,0.00,0.000000,,2013-07-10 11:00:00,
2013-07-10 06:22:00,78.0,65.0,-100.00,North,11,1.0,-999.0,63,0.00,,,0.00,0.000000,,2013-07-10 11:22:00,
2013-07-10 06:33:00,78.0,65.0,-100.00,North,11,1.0,-999.0,63,0.00,,,0.00,0.000000,,2013-07-10 11:33:00,
2013-07-10 06:43:00,78.0,65.0,-100.00,North,11,1.0,-999.0,63,0.00,,,0.00,0.000000,,2013-07-10 11:43:00,
2013-07-10 06:52:00,78.0,65.0,-100.00,North,11,1.0,-999.0,63,0.00,,,0.00,0.000000,,2013-07-10 11:52:00,
2013-07-10 07:00:00,73.0,62.0,-100.00,SSE,152,2.0,-999.0,69,0.00,,,0.00,2.000000,,2013-07-10 12:00:00,
2013-07-10 07:22:00,73.0,62.0,-100.00,SSE,152,2.0,-999.0,69,0.00,,,0.00,2.000000,,2013-07-10 12:22:00,
2013-07-10 07:33:00,73.0,62.0,-100.00,SSE,152,2.0,-999.0,69,0.00,,,0.00,2.000000,,2013-07-10 12:33:00,
2013-07-10 07:43:00,73.0,62.0,-100.00,SSE,152,2.0,-999.0,69,0.00,,,0.00,2.000000,,2013-07-10 12:43:00,
2013-07-10 07:53:00,73.0,62.0,-100.00,SSE,152,2.0,-999.0,69,0.00,,,0.00,2.000000,,2013-07-10 12:53:00,
2013-07-10 08:00:00,75.0,64.0,-100.00,SSE,159,3.0,-999.0,67,0.00,,,0.00,107.000000,,2013-07-10 13:00:00,
2013-07-10 08:32:00,75.0,64.0,-100.00,SSE,159,3.0,-999.0,67,0.00,,,0.00,107.000000,,2013-07-10 13:32:00,
2013-07-10 08:43:00,75.0,64.0,-100.00,SSE,159,3.0,-999.0,67,0.00,,,0.00,107.000000,,2013-07-10 13:43:00,
2013-07-10 08:52:00,75.0,64.0,-100.00,SSE,159,3.0,-999.0,67,0.00,,,0.00,107.000000,,2013-07-10 13:52:00,
2013-07-10 09:00:00,82.0,61.0,-100.00,SSE,168,1.0,-999.0,49,0.00,,,0.00,277.000000,,2013-07-10 14:00:00,
2013-07-10 09:22:00,82.0,61.0,-100.00,SSE,168,1.0,-999.0,49,0.00,,,0.00,277.000000,,2013-07-10 14:22:00,
2013-07-10 09:33:00,82.0,61.0,-100.00,SSE,168,1.0,-999.0,49,0.00,,,0.00,277.000000,,2013-07-10 14:33:00,
2013-07-10 09:43:00,82.0,61.0,-100.00,SSE,168,1.0,-999.0,49,0.00,,,0.00,277.000000,,2013-07-10 14:43:00,
2013-07-10 09:53:00,82.0,61.0,-100.00,SSE,168,1.0,-999.0,49,0.00,,,0.00,277.000000,,2013-07-10 14:53:00,
2013-07-10 10:00:00,88.0,60.0,-100.00,SW,227,1.0,-999.0,39,0.00,,,0.00,490.000000,,2013-07-10 15:00:00,
2013-07-10 10:34:00,88.0,60.0,-100.00,SW,227,1.0,-999.0,39,0.00,,,0.00,490.000000,,2013-07-10 15:34:00,
2013-07-10 10:43:00,88.0,60.0,-100.00,SW,227,1.0,-999.0,39,0.00,,,0.00,490.000000,,2013-07-10 15:43:00,
2013-07-10 10:52:00,88.0,60.0,-100.00,SW,227,1.0,-999.0,39,0.00,,,0.00,490.000000,,2013-07-10 15:52:00,
2013-07-10 11:00:00,92.0,60.0,-100.00,WSW,249,2.0,-999.0,35,0.00,,,0.00,652.000000,,2013-07-10 16:00:00,
2013-07-10 11:33:00,92.0,60.0,-100.00,WSW,249,2.0,-999.0,35,0.00,,,0.00,652.000000,,2013-07-10 16:33:00,
2013-07-10 11:44:00,92.0,60.0,-100.00,WSW,249,2.0,-999.0,35,0.00,,,0.00,652.000000,,2013-07-10 16:44:00,
2013-07-10 11:53:00,92.0,60.0,-100.00,WSW,249,2.0,-999.0,35,0.00,,,0.00,652.000000,,2013-07-10 16:53:00,
2013-07-10 12:00:00,95.0,61.0,-100.00,WNW,284,3.0,-999.0,32,0.00,,,0.00,802.000000,,2013-07-10 17:00:00,
2013-07-10 12:32:00,95.0,61.0,-100.00,WNW,284,3.0,-999.0,32,0.00,,,0.00,802.000000,,2013-07-10 17:32:00,
2013-07-10 12:43:00,95.0,61.0,-100.00,WNW,284,3.0,-999.0,32,0.00,,,0.00,802.000000,,2013-07-10 17:43:00,
2013-07-10 12:53:00,95.0,61.0,-100.00,WNW,284,3.0,-999.0,32,0.00,,,0.00,802.000000,,2013-07-10 17:53:00,
2013-07-10 13:22:00,98.0,59.0,-100.00,WNW,293,6.0,-999.0,28,0.00,,,0.00,884.000000,,2013-07-10 18:22:00,
2013-07-10 14:00:00,97.0,62.0,-100.00,WNW,301,4.0,-999.0,31,0.00,,,0.00,530.000000,,2013-07-10 19:00:00,
2013-07-10 14:21:00,97.0,62.0,-100.00,WNW,301,4.0,-999.0,31,0.00,,,0.00,530.000000,,2013-07-10 19:21:00,
2013-07-10 14:32:00,97.0,62.0,-100.00,WNW,301,4.0,-999.0,31,0.00,,,0.00,530.000000,,2013-07-10 19:32:00,
2013-07-10 14:42:00,97.0,62.0,-100.00,WNW,301,4.0,-999.0,31,0.00,,,0.00,530.000000,,2013-07-10 19:42:00,
2013-07-10 14:53:00,97.0,62.0,-100.00,WNW,301,4.0,-999.0,31,0.00,,,0.00,530.000000,,2013-07-10 19:53:00,
2013-07-10 17:00:00,94.0,70.0,-100.00,WNW,296,4.0,-999.0,46,0.00,,,0.00,765.000000,,2013-07-10 22:00:00,
2013-07-10 17:53:00,94.0,70.0,-100.00,WNW,296,4.0,-999.0,46,0.00,,,0.00,765.000000,,2013-07-10 22:53:00,
2013-07-10 18:00:00,96.0,66.0,-100.00,WNW,295,5.0,-999.0,38,0.00,,,0.00,533.000000,,2013-07-10 23:00:00,
2013-07-10 18:32:00,96.0,66.0,-100.00,WNW,295,5.0,-999.0,38,0.00,,,0.00,533.000000,,2013-07-10 23:32:00,
2013-07-10 18:43:00,96.0,66.0,-100.00,WNW,295,5.0,-999.0,38,0.00,,,0.00,533.000000,,2013-07-10 23:43:00,
2013-07-10 18:52:00,96.0,66.0,-100.00,WNW,295,5.0,-999.0,38,0.00,,,0.00,533.000000,,2013-07-10 23:52:00,
2013-07-10 19:00:00,91.0,65.0,-100.00,SW,228,2.0,-999.0,42,0.00,,,0.00,281.000000,,2013-07-11 00:00:00,
2013-07-10 19:32:00,91.0,65.0,-100.00,SW,228,2.0,-999.0,42,0.00,,,0.00,281.000000,,2013-07-11 00:32:00,
2013-07-10 19:43:00,91.0,65.0,-100.00,SW,228,2.0,-999.0,42,0.00,,,0.00,281.000000,,2013-07-11 00:43:00,
2013-07-10 19:52:00,91.0,65.0,-100.00,SW,228,2.0,-999.0,42,0.00,,,0.00,281.000000,,2013-07-11 00:52:00,
2013-07-10 20:00:00,91.0,66.0,-100.00,South,176,0.0,-999.0,44,0.00,,,0.00,223.000000,,2013-07-11 01:00:00,
2013-07-10 20:22:00,91.0,66.0,-100.00,South,176,0.0,-999.0,44,0.00,,,0.00,223.000000,,2013-07-11 01:22:00,
2013-07-10 20:32:00,91.0,66.0,-100.00,South,176,0.0,-999.0,44,0.00,,,0.00,223.000000,,2013-07-11 01:32:00,
2013-07-10 20:43:00,91.0,66.0,-100.00,South,176,0.0,-999.0,44,0.00,,,0.00,223.000000,,2013-07-11 01:43:00,
2013-07-10 20:52:00,91.0,66.0,-100.00,South,176,0.0,-999.0,44,0.00,,,0.00,223.000000,,2013-07-11 01:52:00,
2013-07-10 21:00:00,88.0,69.0,-100.00,South,176,1.0,-999.0,53,0.00,,,0.00,54.000000,,2013-07-11 02:00:00,
2013-07-10 21:22:00,88.0,69.0,-100.00,South,176,1.0,-999.0,53,0.00,,,0.00,54.000000,,2013-07-11 02:22:00,
2013-07-10 21:32:00,88.0,69.0,-100.00,South,176,1.0,-999.0,53,0.00,,,0.00,54.000000,,2013-07-11 02:32:00,
2013-07-10 21:43:00,88.0,69.0,-100.00,South,176,1.0,-999.0,53,0.00,,,0.00,54.000000,,2013-07-11 02:43:00,
2013-07-10 21:53:00,88.0,69.0,-100.00,South,176,1.0,-999.0,53,0.00,,,0.00,54.000000,,2013-07-11 02:53:00,
2013-07-10 22:00:00,84.0,73.0,-100.00,NNE,26,2.0,-999.0,69,0.00,,,0.00,0.000000,,2013-07-11 03:00:00,
2013-07-10 22:21:00,84.0,73.0,-100.00,NNE,26,2.0,-999.0,69,0.00,,,0.00,0.000000,,2013-07-11 03:21:00,
2013-07-10 22:33:00,84.0,73.0,-100.00,NNE,26,2.0,-999.0,69,0.00,,,0.00,0.000000,,2013-07-11 03:33:00,
2013-07-10 22:42:00,84.0,73.0,-100.00,NNE,26,2.0,-999.0,69,0.00,,,0.00,0.000000,,2013-07-11 03:42:00,
2013-07-10 22:52:00,84.0,73.0,-100.00,NNE,26,2.0,-999.0,69,0.00,,,0.00,0.000000,,2013-07-11 03:52:00,
2013-07-10 23:00:00,80.0,70.0,-100.00,SSE,148,1.0,-999.0,71,0.00,,,0.00,0.000000,,2013-07-11 04:00:00,
2013-07-10 23:32:00,80.0,70.0,-100.00,SSE,148,1.0,-999.0,71,0.00,,,0.00,0.000000,,2013-07-11 04:32:00,
2013-07-10 23:43:00,80.0,70.0,-100.00,SSE,148,1.0,-999.0,71,0.00,,,0.00,0.000000,,2013-07-11 04:43:00,
2013-07-10 23:53:00,80.0,70.0,-100.00,SSE,148,1.0,-999.0,71,0.00,,,0.00,0.000000,,2013-07-11 04:53:00,